createdAt,value
2019-04-29T00:00:20.758Z,98882.78
2019-04-29T00:02:47.340Z,98886.74
2019-04-29T00:05:14.285Z,98886.27
2019-04-29T00:07:40.960Z,98894.56
2019-04-29T00:10:07.574Z,98883.99
2019-04-29T00:12:34.154Z,98893.95
2019-04-29T00:15:00.878Z,98886.87
2019-04-29T00:17:27.513Z,98884.59
2019-04-29T00:19:54.130Z,98885.08
2019-04-29T00:22:20.705Z,98883.27
2019-04-29T00:24:47.302Z,98882.43
2019-04-29T00:27:13.871Z,98886.39
2019-04-29T00:29:40.469Z,98885.66
2019-04-29T00:32:07.045Z,98885.31
2019-04-29T00:34:33.668Z,98883.99
2019-04-29T00:37:00.302Z,98885.18
2019-04-29T00:39:26.873Z,98885.18
2019-04-29T00:41:53.484Z,98883.75
2019-04-29T00:44:20.056Z,98883.75
2019-04-29T00:46:46.682Z,98877.14
2019-04-29T00:49:13.251Z,98880.16
2019-04-29T00:51:39.827Z,98878.36
2019-04-29T00:54:06.486Z,98872.70
2019-04-29T00:56:33.064Z,98876.67
2019-04-29T00:58:59.640Z,98874.13
2019-04-29T01:01:26.238Z,98874.13
2019-04-29T01:03:52.822Z,98869.22
2019-04-29T01:06:19.421Z,98872.44
2019-04-29T01:08:46.079Z,98863.19
2019-04-29T01:11:12.699Z,98869.80
2019-04-29T01:13:39.271Z,98867.66
2019-04-29T01:16:05.864Z,98861.87
2019-04-29T01:18:32.438Z,98866.20
2019-04-29T01:20:59.045Z,98870.53
2019-04-29T01:23:25.623Z,98860.55
2019-04-29T01:25:52.220Z,98860.20
2019-04-29T01:28:18.799Z,98860.69
2019-04-29T01:30:45.410Z,98861.64
2019-04-29T01:33:11.990Z,98864.86
2019-04-29T01:35:38.596Z,98861.48
2019-04-29T01:38:05.179Z,98864.48
2019-04-29T01:40:31.859Z,98860.63
2019-04-29T01:42:58.434Z,98859.42
2019-04-29T01:45:25.089Z,98857.62
2019-04-29T01:47:51.700Z,98857.62
2019-04-29T01:50:18.272Z,98859.79
2019-04-29T01:52:44.861Z,98858.84
2019-04-29T01:55:11.446Z,98857.98
2019-04-29T01:57:38.058Z,98850.06
2019-04-29T02:00:04.638Z,98848.38
2019-04-29T02:02:31.231Z,98847.16
2019-04-29T02:04:57.795Z,98845.94
2019-04-29T02:07:24.391Z,98841.98
2019-04-29T02:09:50.970Z,98842.34
2019-04-29T02:12:17.582Z,98826.13
2019-04-29T02:14:44.162Z,98830.67
2019-04-29T02:17:10.775Z,98832.94
2019-04-29T02:19:37.345Z,98828.27
2019-04-29T02:22:03.943Z,98831.39
2019-04-29T02:24:30.509Z,98827.05
2019-04-29T02:26:57.144Z,98828.85
2019-04-29T02:29:23.715Z,98826.69
2019-04-29T02:31:50.334Z,98827.53
2019-04-29T02:34:16.909Z,98832.44
2019-04-29T02:36:43.517Z,98826.79
2019-04-29T02:39:10.102Z,98820.66
2019-04-29T02:41:36.925Z,98815.48
2019-04-29T02:44:03.529Z,98822.67
2019-04-29T02:46:30.144Z,98828.05
2019-04-29T02:48:56.727Z,98822.30
2019-04-29T02:51:23.329Z,98822.77
2019-04-29T02:53:49.899Z,98824.94
2019-04-29T02:56:16.606Z,98824.36
2019-04-29T02:58:43.200Z,98822.56
2019-04-29T03:01:09.816Z,98818.59
2019-04-29T03:03:36.472Z,98822.09
2019-04-29T03:06:03.049Z,98815.85
2019-04-29T03:08:29.706Z,98818.39
2019-04-29T03:10:56.296Z,98811.31
2019-04-29T03:13:22.891Z,98818.86
2019-04-29T03:15:49.467Z,98817.55
2019-04-29T03:18:16.081Z,98815.64
2019-04-29T03:20:42.682Z,98817.33
2019-04-29T03:23:09.321Z,98824.30
2019-04-29T03:25:35.892Z,98815.06
2019-04-29T03:28:02.496Z,98818.30
2019-04-29T03:30:29.087Z,98818.20
2019-04-29T03:32:55.699Z,98824.70
2019-04-29T03:35:22.282Z,98817.24
2019-04-29T03:37:49.046Z,98816.30
2019-04-29T03:40:15.616Z,98821.10
2019-04-29T03:42:42.222Z,98821.84
2019-04-29T03:45:08.792Z,98823.42
2019-04-29T03:47:35.385Z,98822.47
2019-04-29T03:50:01.966Z,98814.91
2019-04-29T03:52:28.559Z,98814.07
2019-04-29T03:54:55.134Z,98815.77
2019-04-29T03:57:21.702Z,98817.56
2019-04-29T03:59:48.310Z,98818.27
2019-04-29T04:02:15.067Z,98816.36
2019-04-29T04:04:41.675Z,98827.67
2019-04-29T04:07:08.243Z,98817.94
2019-04-29T04:09:34.854Z,98819.16
2019-04-29T04:12:01.425Z,98818.20
2019-04-29T04:14:28.055Z,98821.95
2019-04-29T04:16:54.631Z,98819.20
2019-04-29T04:19:21.252Z,98820.89
2019-04-29T04:21:47.829Z,98826.08
2019-04-29T04:24:14.430Z,98824.13
2019-04-29T04:26:41.014Z,98831.84
2019-04-29T04:29:07.618Z,98827.30
2019-04-29T04:31:34.187Z,98834.64
2019-04-29T04:34:00.796Z,98828.77
2019-04-29T04:36:27.365Z,98831.78
2019-04-29T04:38:53.974Z,98836.86
2019-04-29T04:41:20.551Z,98836.23
2019-04-29T04:43:47.165Z,98836.97
2019-04-29T04:46:13.757Z,98836.02
2019-04-29T04:48:40.362Z,98841.09
2019-04-29T04:51:06.940Z,98844.00
2019-04-29T04:53:33.565Z,98843.04
2019-04-29T04:56:00.134Z,98841.13
2019-04-29T04:58:26.753Z,98845.84
2019-04-29T05:00:53.322Z,98850.51
2019-04-29T05:03:19.916Z,98848.13
2019-04-29T05:05:46.482Z,98844.16
2019-04-29T05:08:13.064Z,98843.20
2019-04-29T05:10:39.669Z,98851.50
2019-04-29T05:13:06.226Z,98852.23
2019-04-29T05:15:32.838Z,98849.12
2019-04-29T05:17:59.415Z,98853.45
2019-04-29T05:20:26.015Z,98853.34
2019-04-29T05:22:52.580Z,98859.00
2019-04-29T05:25:19.189Z,98860.10
2019-04-29T05:27:45.761Z,98851.69
2019-04-29T05:30:12.384Z,98848.91
2019-04-29T05:32:38.945Z,98846.62
2019-04-29T05:35:05.633Z,98848.20
2019-04-29T05:37:32.207Z,98849.05
2019-04-29T05:39:58.794Z,98848.09
2019-04-29T05:42:25.379Z,98847.25
2019-04-29T05:44:52.011Z,98846.77
2019-04-29T05:47:18.579Z,98848.46
2019-04-29T05:49:45.177Z,98856.77
2019-04-29T05:52:11.761Z,98852.31
2019-04-29T05:54:38.392Z,98858.45
2019-04-29T05:57:04.978Z,98855.81
2019-04-29T05:59:31.588Z,98859.41
2019-04-29T06:01:58.164Z,98859.05
2019-04-29T06:04:24.737Z,98854.59
2019-04-29T06:06:51.344Z,98853.64
2019-04-29T06:09:19.666Z,98857.39
2019-04-29T06:11:46.260Z,98863.89
2019-04-29T06:14:12.887Z,98867.27
2019-04-29T06:16:39.508Z,98864.00
2019-04-29T06:19:06.127Z,98865.36
2019-04-29T06:21:32.768Z,98863.45
2019-04-29T06:24:04.123Z,98865.77
2019-04-29T06:26:27.698Z,98862.52
2019-04-29T06:28:54.263Z,98866.98
2019-04-29T06:31:20.898Z,98861.54
2019-04-29T06:33:47.457Z,98868.78
2019-04-29T06:36:14.072Z,98871.79
2019-04-29T06:38:40.650Z,98876.23
2019-04-29T06:41:09.734Z,98876.94
2019-04-29T06:43:35.572Z,98876.83
2019-04-29T06:46:02.203Z,98876.72
2019-04-29T06:48:28.771Z,98877.34
2019-04-29T06:50:55.370Z,98877.73
2019-04-29T06:53:23.246Z,98874.02
2019-04-29T06:55:50.032Z,98879.20
2019-04-29T06:58:16.669Z,98881.26
2019-04-29T07:00:43.310Z,98880.30
2019-04-29T07:03:09.924Z,98877.98
2019-04-29T07:05:36.544Z,98881.00
2019-04-29T07:08:03.122Z,98874.38
2019-04-29T07:10:29.726Z,98875.70
2019-04-29T07:12:59.008Z,98872.83
2019-04-29T07:15:25.628Z,98878.75
2019-04-29T07:17:52.274Z,98873.34
2019-04-29T07:20:18.868Z,98881.77
2019-04-29T07:22:45.436Z,98871.66
2019-04-29T07:25:12.031Z,98878.64
2019-04-29T07:27:43.101Z,98880.33
2019-04-29T07:30:08.322Z,98877.68
2019-04-29T07:32:35.143Z,98872.16
2019-04-29T07:35:01.732Z,98879.84
2019-04-29T07:37:29.779Z,98881.42
2019-04-29T07:39:56.861Z,98875.64
2019-04-29T07:42:25.110Z,98871.67
2019-04-29T07:44:52.823Z,98868.06
2019-04-29T07:47:20.118Z,98868.56
2019-04-29T07:49:51.323Z,98865.58
2019-04-29T07:52:16.151Z,98865.79
2019-04-29T07:54:43.000Z,98860.27
2019-04-29T07:57:12.425Z,98869.67
2019-04-29T07:59:39.613Z,98877.14
2019-04-29T08:02:06.291Z,98877.39
2019-04-29T08:04:32.872Z,98884.00
2019-04-29T08:06:59.461Z,98881.48
2019-04-29T08:09:26.036Z,98883.78
2019-04-29T08:11:52.665Z,98882.83
2019-04-29T08:14:19.300Z,98888.37
2019-04-29T08:16:46.202Z,98887.41
2019-04-29T08:19:12.780Z,98881.63
2019-04-29T08:21:39.390Z,98884.86
2019-04-29T08:24:05.961Z,98887.27
2019-04-29T08:26:33.636Z,98890.91
2019-04-29T08:29:01.703Z,98893.31
2019-04-29T08:31:28.425Z,98901.63
2019-04-29T08:33:55.035Z,98898.98
2019-04-29T08:36:21.641Z,98898.98
2019-04-29T08:38:48.218Z,98898.14
2019-04-29T08:41:14.833Z,98899.31
2019-04-29T08:43:41.425Z,98896.56
2019-04-29T08:46:08.022Z,98905.83
2019-04-29T08:48:34.606Z,98901.97
2019-04-29T08:51:01.173Z,98902.09
2019-04-29T08:53:27.775Z,98900.64
2019-04-29T08:55:54.397Z,98903.30
2019-04-29T08:58:21.135Z,98904.02
2019-04-29T09:00:51.296Z,98899.33
2019-04-29T09:03:18.746Z,98904.98
2019-04-29T09:05:46.231Z,98909.09
2019-04-29T09:08:13.569Z,98909.81
2019-04-29T09:10:40.237Z,98909.22
2019-04-29T09:13:06.844Z,98912.11
2019-04-29T09:15:33.447Z,98915.98
2019-04-29T09:18:00.047Z,98915.02
2019-04-29T09:20:26.616Z,98916.91
2019-04-29T09:22:53.232Z,98915.96
2019-04-29T09:25:28.046Z,98910.19
2019-04-29T09:27:56.422Z,98906.06
2019-04-29T09:30:23.238Z,98907.98
2019-04-29T09:32:49.851Z,98909.80
2019-04-29T09:35:16.449Z,98907.62
2019-04-29T09:37:43.090Z,98905.73
2019-04-29T09:40:09.702Z,98901.26
2019-04-29T09:42:36.353Z,98904.99
2019-04-29T09:45:02.960Z,98908.36
2019-04-29T09:47:29.629Z,98901.61
2019-04-29T09:49:56.233Z,98898.14
2019-04-29T09:52:22.811Z,98907.27
2019-04-29T09:54:49.405Z,98903.30
2019-04-29T09:57:15.980Z,98901.13
2019-04-29T09:59:42.581Z,98893.90
2019-04-29T10:02:09.159Z,98894.02
2019-04-29T10:04:35.768Z,98894.02
2019-04-29T10:07:02.345Z,98893.42
2019-04-29T10:09:28.936Z,98898.73
2019-04-29T10:11:55.523Z,98895.11
2019-04-29T10:14:22.118Z,98891.50
2019-04-29T10:16:51.388Z,98895.23
2019-04-29T10:19:17.120Z,98889.91
2019-04-29T10:21:43.708Z,98887.77
2019-04-29T10:24:10.295Z,98890.64
2019-04-29T10:26:36.910Z,98886.66
2019-04-29T10:29:03.586Z,98893.89
2019-04-29T10:31:30.156Z,98903.03
2019-04-29T10:33:56.760Z,98897.23
2019-04-29T10:36:26.078Z,98898.69
2019-04-29T10:38:51.676Z,98895.06
2019-04-29T10:41:18.266Z,98899.28
2019-04-29T10:43:44.953Z,98901.09
2019-04-29T10:46:11.530Z,98901.94
2019-04-29T10:48:38.109Z,98902.91
2019-04-29T10:51:04.716Z,98903.38
2019-04-29T10:53:31.290Z,98902.66
2019-04-29T10:56:00.917Z,98906.77
2019-04-29T10:58:30.218Z,98900.38
2019-04-29T11:00:57.314Z,98905.32
2019-04-29T11:03:24.986Z,98907.97
2019-04-29T11:06:00.357Z,98901.34
2019-04-29T11:08:19.510Z,98911.35
2019-04-29T11:10:46.381Z,98913.03
2019-04-29T11:13:16.356Z,98914.73
2019-04-29T11:15:44.823Z,98913.40
2019-04-29T11:18:11.282Z,98910.75
2019-04-29T11:20:37.900Z,98907.01
2019-04-29T11:23:09.141Z,98910.27
2019-04-29T11:25:33.901Z,98908.58
2019-04-29T11:28:00.478Z,98904.36
2019-04-29T11:30:27.087Z,98907.85
2019-04-29T11:32:53.654Z,98914.61
2019-04-29T11:35:20.331Z,98913.64
2019-04-29T11:37:49.965Z,98912.19
2019-04-29T11:40:15.228Z,98916.17
2019-04-29T11:42:42.067Z,98918.10
2019-04-29T11:45:08.686Z,98918.47
2019-04-29T11:47:35.265Z,98912.31
2019-04-29T11:50:01.851Z,98916.66
2019-04-29T11:52:29.300Z,98915.81
2019-04-29T11:54:55.903Z,98915.81
2019-04-29T11:57:22.518Z,98917.02
2019-04-29T11:59:49.091Z,98913.77
2019-04-29T12:02:15.733Z,98911.71
2019-04-29T12:04:42.518Z,98912.44
2019-04-29T12:07:09.185Z,98913.88
2019-04-29T12:09:35.754Z,98913.61
2019-04-29T12:12:02.356Z,98908.41
2019-04-29T12:14:28.936Z,98912.76
2019-04-29T12:16:55.531Z,98902.14
2019-04-29T12:19:22.598Z,98907.45
2019-04-29T12:21:49.421Z,98899.97
2019-04-29T12:24:15.985Z,98905.04
2019-04-29T12:26:45.026Z,98905.04
2019-04-29T12:29:13.758Z,98903.23
2019-04-29T12:31:40.102Z,98904.20
2019-04-29T12:34:06.679Z,98905.77
2019-04-29T12:36:36.763Z,98901.58
2019-04-29T12:39:01.596Z,98909.66
2019-04-29T12:41:30.237Z,98900.73
2019-04-29T12:43:59.427Z,98893.38
2019-04-29T12:46:24.797Z,98892.89
2019-04-29T12:48:51.433Z,98903.51
2019-04-29T12:51:18.009Z,98895.79
2019-04-29T12:53:44.899Z,98897.72
2019-04-29T12:56:12.749Z,98886.27
2019-04-29T12:58:39.498Z,98890.52
2019-04-29T13:01:06.170Z,98894.23
2019-04-29T13:03:39.547Z,98889.28
2019-04-29T13:06:02.603Z,98889.03
2019-04-29T13:08:29.376Z,98890.24
2019-04-29T13:10:55.957Z,98890.48
2019-04-29T13:13:22.536Z,98888.67
2019-04-29T13:15:49.744Z,98888.55
2019-04-29T13:18:23.071Z,98882.64
2019-04-29T13:20:45.638Z,98886.98
2019-04-29T13:23:17.850Z,98882.64
2019-04-29T13:25:42.352Z,98878.66
2019-04-29T13:28:08.929Z,98881.19
2019-04-29T13:30:35.542Z,98885.78
2019-04-29T13:33:05.943Z,98880.35
2019-04-29T13:35:30.525Z,98884.58
2019-04-29T13:37:57.105Z,98877.86
2019-04-29T13:40:23.728Z,98879.55
2019-04-29T13:42:51.049Z,98877.61
2019-04-29T13:45:24.279Z,98880.78
2019-04-29T13:47:50.222Z,98881.63
2019-04-29T13:50:20.118Z,98883.27
2019-04-29T13:52:42.703Z,98887.98
2019-04-29T13:55:17.037Z,98884.75
2019-04-29T13:57:37.619Z,98879.56
2019-04-29T14:00:04.239Z,98879.69
2019-04-29T14:02:36.270Z,98879.92
2019-04-29T14:05:00.168Z,98886.19
2019-04-29T14:07:27.424Z,98884.98
2019-04-29T14:09:54.034Z,98887.39
2019-04-29T14:14:49.049Z,98877.05
2019-04-29T14:17:25.906Z,98875.95
2019-04-29T14:19:43.963Z,98880.41
2019-04-29T14:22:21.373Z,98878.36
2019-04-29T14:24:38.884Z,98877.78
2019-04-29T14:27:05.501Z,98877.41
2019-04-29T14:29:32.159Z,98879.82
2019-04-29T14:32:00.861Z,98880.30
2019-04-29T14:34:30.628Z,98877.05
2019-04-29T14:36:57.471Z,98878.86
2019-04-29T14:39:36.818Z,98877.53
2019-04-29T14:41:55.406Z,98880.19
2019-04-29T14:44:20.318Z,98881.51
2019-04-29T14:46:47.351Z,98878.38
2019-04-29T14:49:13.937Z,98887.06
2019-04-29T14:51:40.535Z,98874.98
2019-04-29T14:54:07.508Z,98876.67
2019-04-29T14:56:34.306Z,98880.64
2019-04-29T14:59:07.140Z,98872.20
2019-04-29T15:01:29.278Z,98873.32
2019-04-29T15:03:55.906Z,98872.23
2019-04-29T15:06:22.600Z,98873.08
2019-04-29T15:08:49.235Z,98863.91
2019-04-29T15:11:15.920Z,98870.06
2019-04-29T15:13:43.193Z,98872.95
2019-04-29T15:16:14.001Z,98879.44
2019-04-29T15:18:47.796Z,98880.53
2019-04-29T15:21:08.481Z,98876.44
2019-04-29T15:23:35.588Z,98870.65
2019-04-29T15:26:02.166Z,98881.25
2019-04-29T15:28:28.786Z,98877.76
2019-04-29T15:30:55.366Z,98875.95
2019-04-29T15:33:21.980Z,98878.12
2019-04-29T15:35:48.576Z,98871.50
2019-04-29T15:38:15.169Z,98872.34
2019-04-29T15:40:42.956Z,98873.30
2019-04-29T15:43:09.932Z,98867.52
2019-04-29T15:45:36.486Z,98871.02
2019-04-29T15:48:03.092Z,98868.48
2019-04-29T15:50:32.748Z,98870.17
2019-04-29T15:52:58.724Z,98868.00
2019-04-29T15:55:26.319Z,98863.41
2019-04-29T15:57:53.283Z,98863.53
2019-04-29T16:00:22.438Z,98866.70
2019-04-29T16:02:48.324Z,98862.84
2019-04-29T16:05:15.030Z,98861.14
2019-04-29T16:07:46.551Z,98861.14
2019-04-29T16:10:14.494Z,98855.13
2019-04-29T16:12:38.406Z,98850.78
2019-04-29T16:15:04.974Z,98847.65
2019-04-29T16:17:37.406Z,98850.06
2019-04-29T16:19:59.974Z,98849.70
2019-04-29T16:22:26.585Z,98846.33
2019-04-29T16:24:59.166Z,98846.56
2019-04-29T16:27:21.766Z,98850.29
2019-04-29T16:29:51.615Z,98845.95
2019-04-29T16:32:16.682Z,98836.31
2019-04-29T16:34:45.143Z,98841.25
2019-04-29T16:37:18.516Z,98840.88
2019-04-29T16:39:40.908Z,98847.17
2019-04-29T16:42:07.524Z,98833.56
2019-04-29T16:44:36.282Z,98835.85
2019-04-29T16:47:07.544Z,98840.67
2019-04-29T16:49:31.348Z,98832.36
2019-04-29T16:51:57.931Z,98835.13
2019-04-29T16:54:28.361Z,98840.18
2019-04-29T16:56:52.818Z,98840.66
2019-04-29T16:59:19.548Z,98838.12
2019-04-29T17:01:46.130Z,98843.91
2019-04-29T17:04:12.839Z,98837.28
2019-04-29T17:06:41.676Z,98845.83
2019-04-29T17:09:07.748Z,98844.14
2019-04-29T17:11:34.327Z,98846.78
2019-04-29T17:14:03.355Z,98847.75
2019-04-29T17:16:29.266Z,98856.42
2019-04-29T17:18:56.071Z,98853.30
2019-04-29T17:21:22.643Z,98857.16
2019-04-29T17:23:49.252Z,98856.19
2019-04-29T17:26:15.847Z,98855.59
2019-04-29T17:28:42.463Z,98858.02
2019-04-29T17:31:12.543Z,98850.55
2019-04-29T17:33:37.936Z,98857.05
2019-04-29T17:36:05.676Z,98852.71
2019-04-29T17:38:32.258Z,98861.50
2019-04-29T17:40:58.950Z,98864.04
2019-04-29T17:43:25.527Z,98861.75
2019-04-29T17:45:52.145Z,98865.73
2019-04-29T17:48:19.545Z,98865.22
2019-04-29T17:50:47.831Z,98866.06
2019-04-29T17:53:15.288Z,98865.22
2019-04-29T17:55:42.205Z,98873.68
2019-04-29T17:58:08.801Z,98867.17
2019-04-29T18:00:42.257Z,98869.45
2019-04-29T18:03:05.296Z,98870.90
2019-04-29T18:05:34.482Z,98872.94
2019-04-29T18:08:00.404Z,98874.97
2019-04-29T18:10:29.513Z,98874.61
2019-04-29T18:12:56.729Z,98883.15
2019-04-29T18:15:23.516Z,98884.62
2019-04-29T18:17:50.123Z,98882.09
2019-04-29T18:20:29.757Z,98886.66
2019-04-29T18:22:46.444Z,98884.61
2019-04-29T18:25:13.032Z,98883.39
2019-04-29T18:27:39.651Z,98880.37
2019-04-29T18:30:07.162Z,98881.45
2019-04-29T18:32:36.401Z,98879.77
2019-04-29T18:35:02.243Z,98882.30
2019-04-29T18:37:30.443Z,98875.31
2019-04-29T18:39:57.668Z,98884.83
2019-04-29T18:42:27.170Z,98880.86
2019-04-29T18:44:59.839Z,98883.76
2019-04-29T18:47:23.040Z,98884.97
2019-04-29T18:49:49.817Z,98887.62
2019-04-29T18:52:25.438Z,98884.12
2019-04-29T18:54:45.062Z,98893.77
2019-04-29T18:57:11.705Z,98892.91
2019-04-29T18:59:38.282Z,98892.07
2019-04-29T19:02:07.813Z,98894.61
2019-04-29T19:04:33.221Z,98890.16
2019-04-29T19:07:02.401Z,98892.80
2019-04-29T19:09:32.314Z,98889.30
2019-04-29T19:11:56.598Z,98890.63
2019-04-29T19:14:25.592Z,98891.59
2019-04-29T19:16:52.732Z,98898.70
2019-04-29T19:19:19.815Z,98891.23
2019-04-29T19:21:47.517Z,98894.24
2019-04-29T19:24:16.090Z,98893.77
2019-04-29T19:26:42.495Z,98887.14
2019-04-29T19:29:09.771Z,98887.62
2019-04-29T19:31:46.063Z,98885.81
2019-04-29T19:34:05.509Z,98889.42
2019-04-29T19:36:32.351Z,98891.23
2019-04-29T19:38:58.921Z,98884.23
2019-04-29T19:41:25.645Z,98882.55
2019-04-29T19:43:55.138Z,98882.30
2019-04-29T19:46:24.844Z,98885.54
2019-04-29T19:48:50.479Z,98886.50
2019-04-29T19:51:18.648Z,98884.95
2019-04-29T19:53:49.481Z,98881.95
2019-04-29T19:56:20.906Z,98884.23
2019-04-29T19:58:42.408Z,98878.20
2019-04-29T20:01:13.426Z,98875.78
2019-04-29T20:03:41.689Z,98879.39
2019-04-29T20:06:08.946Z,98873.84
2019-04-29T20:08:51.116Z,98869.61
2019-04-29T20:11:13.763Z,98866.23
2019-04-29T20:13:33.746Z,98866.75
2019-04-29T20:16:09.935Z,98864.58
2019-04-29T20:18:33.772Z,98867.23
2019-04-29T20:21:08.459Z,98859.28
2019-04-29T20:23:28.011Z,98863.84
2019-04-29T20:26:05.554Z,98856.49
2019-04-29T20:28:23.373Z,98848.78
2019-04-29T20:30:54.472Z,98855.98
2019-04-29T20:33:18.403Z,98854.19
2019-04-29T20:35:49.000Z,98845.52
2019-04-29T20:38:15.548Z,98847.80
2019-04-29T20:40:43.482Z,98853.57
2019-04-29T20:43:10.217Z,98842.61
2019-04-29T20:45:36.886Z,98839.97
2019-04-29T20:48:03.569Z,98839.60
2019-04-29T20:50:30.313Z,98848.87
2019-04-29T20:53:01.888Z,98839.60
2019-04-29T20:55:25.600Z,98835.30
2019-04-29T20:57:52.718Z,98834.09
2019-04-29T21:00:24.785Z,98831.55
2019-04-29T21:02:49.181Z,98832.99
2019-04-29T21:05:23.199Z,98833.95
2019-04-29T21:07:44.278Z,98833.10
2019-04-29T21:10:10.895Z,98834.06
2019-04-29T21:12:38.415Z,98836.11
2019-04-29T21:15:07.432Z,98830.45
2019-04-29T21:17:35.231Z,98826.85
2019-04-29T21:20:01.893Z,98828.17
2019-04-29T21:22:28.467Z,98833.36
2019-04-29T21:24:55.272Z,98832.52
2019-04-29T21:27:23.396Z,98831.19
2019-04-29T21:29:54.070Z,98825.89
2019-04-29T21:32:18.588Z,98827.58
2019-04-29T21:34:45.312Z,98826.63
2019-04-29T21:37:11.952Z,98820.85
2019-04-29T21:39:38.553Z,98823.02
2019-04-29T21:42:05.738Z,98819.05
2019-04-29T21:44:32.506Z,98820.73
2019-04-29T21:46:59.577Z,98821.70
2019-04-29T21:49:27.412Z,98824.83
2019-04-29T21:51:55.529Z,98828.31
2019-04-29T21:54:22.235Z,98823.86
2019-04-29T21:56:48.871Z,98823.38
2019-04-29T21:59:15.825Z,98822.88
2019-04-29T22:01:42.554Z,98820.85
2019-04-29T22:04:09.176Z,98820.00
2019-04-29T22:06:35.802Z,98816.52
2019-04-29T22:09:02.667Z,98821.45
2019-04-29T22:11:29.369Z,98818.91
2019-04-29T22:13:55.943Z,98813.25
2019-04-29T22:16:22.556Z,98815.42
2019-04-29T22:18:52.005Z,98815.30
2019-04-29T22:21:22.122Z,98818.31
2019-04-29T22:23:51.443Z,98813.02
2019-04-29T22:26:18.279Z,98811.81
2019-04-29T22:28:42.445Z,98803.76
2019-04-29T22:31:09.043Z,98800.52
2019-04-29T22:33:38.537Z,98800.88
2019-04-29T22:36:05.302Z,98801.22
2019-04-29T22:38:32.116Z,98799.41
2019-04-29T22:40:58.725Z,98800.25
2019-04-29T22:43:25.465Z,98799.66
2019-04-29T22:45:52.074Z,98793.05
2019-04-29T22:48:19.864Z,98795.58
2019-04-29T22:50:47.385Z,98788.00
2019-04-29T22:53:14.807Z,98793.55
2019-04-29T22:55:41.562Z,98789.94
2019-04-29T22:58:09.766Z,98796.33
2019-04-29T23:00:36.466Z,98789.11
2019-04-29T23:03:03.559Z,98794.98
2019-04-29T23:05:30.318Z,98790.78
2019-04-29T23:08:00.081Z,98782.61
2019-04-29T23:10:27.901Z,98784.42
2019-04-29T23:12:57.247Z,98782.36
2019-04-29T23:15:23.628Z,98777.67
2019-04-29T23:17:50.901Z,98783.58
2019-04-29T23:20:20.684Z,98777.68
2019-04-29T23:22:45.852Z,98772.74
2019-04-29T23:25:12.420Z,98769.50
2019-04-29T23:27:39.034Z,98770.19
2019-04-29T23:30:05.617Z,98767.54
2019-04-29T23:32:32.220Z,98763.56
2019-04-29T23:35:01.709Z,98765.89
2019-04-29T23:37:27.610Z,98759.27
2019-04-29T23:39:55.814Z,98763.72
2019-04-29T23:42:22.505Z,98763.84
2019-04-29T23:44:49.192Z,98759.98
2019-04-29T23:47:17.742Z,98756.13
2019-04-29T23:49:44.957Z,98756.36
2019-04-29T23:52:13.474Z,98755.75
2019-04-29T23:54:45.641Z,98757.20
2019-04-29T23:57:08.543Z,98751.90
2019-04-29T23:59:35.347Z,98755.02
